Time;durP1;ratioP1;P1;durP2;ratioP2;P2;SDS_P1;SDS_P2;PMS_P1;PMS_P2;Temp;Humidity;BMP_temperature;BMP_pressure;BME280_temperature;BME280_humidity;BME280_pressure;Samples;Min_cycle;Max_cycle;Signal;HPM_P1;HPM_P2
2022/06/21 00:00:23;;;;;;;12.32;4.20;;;17.40;83.70;;;;;;5033255;28;20372;-92
2022/06/21 00:02:53;;;;;;;9.85;3.83;;;17.40;83.40;;;;;;5037619;28;20016;-92
2022/06/21 00:05:34;;;;;;;5.25;3.75;;;17.40;84.00;;;;;;5019578;28;20036;-91
2022/06/21 00:08:15;;;;;;;9.40;4.13;;;17.40;84.10;;;;;;5027499;28;20030;-90
2022/06/21 00:10:56;;;;;;;9.43;4.05;;;17.40;84.20;;;;;;5099278;27;2245384;-95
2022/06/21 00:13:28;;;;;;;8.73;3.92;;;17.40;84.20;;;;;;5120415;27;20031;-91
2022/06/21 00:16:02;;;;;;;8.85;3.92;;;17.40;84.20;;;;;;5151940;27;20023;-95
2022/06/21 00:18:30;;;;;;;7.63;4.18;;;17.40;84.50;;;;;;5135779;28;20114;-87
2022/06/21 00:20:57;;;;;;;5.78;3.90;;;17.40;84.30;;;;;;5117914;28;20392;-87
2022/06/21 00:23:26;;;;;;;8.48;3.72;;;17.40;84.60;;;;;;5141798;27;20027;-92
2022/06/21 00:25:53;;;;;;;9.02;3.72;;;17.40;84.40;;;;;;5173594;27;20023;-90
2022/06/21 00:28:19;;;;;;;9.55;4.53;;;17.40;84.40;;;;;;5171231;27;20078;-89
2022/06/21 00:30:47;;;;;;;6.63;3.90;;;17.40;84.20;;;;;;5137847;27;20384;-92
2022/06/21 00:33:18;;;;;;;6.50;3.97;;;17.40;84.20;;;;;;5142863;27;20034;-89
2022/06/21 00:35:47;;;;;;;6.55;3.50;;;17.30;84.30;;;;;;5136107;27;20057;-92
2022/06/21 00:38:20;;;;;;;13.95;4.28;;;17.30;84.60;;;;;;5154183;27;20037;-90
2022/06/21 00:40:45;;;;;;;8.38;4.68;;;17.30;84.30;;;;;;5153849;27;20057;-90
2022/06/21 00:43:17;;;;;;;9.43;4.25;;;17.30;84.10;;;;;;5153868;27;20407;-89
2022/06/21 00:45:46;;;;;;;7.18;4.00;;;17.30;85.00;;;;;;5153676;27;20018;-91
2022/06/21 00:48:14;;;;;;;15.40;4.68;;;17.30;85.10;;;;;;5154007;27;20035;-92
2022/06/21 00:50:47;;;;;;;7.25;3.95;;;17.30;85.10;;;;;;5131818;28;20059;-90
2022/06/21 00:53:29;;;;;;;7.88;4.38;;;17.30;85.20;;;;;;5136179;27;20429;-90
2022/06/21 00:56:20;;;;;;;7.95;3.90;;;17.40;85.30;;;;;;5154780;27;20023;-89
2022/06/21 00:58:46;;;;;;;9.60;4.57;;;17.40;85.80;;;;;;5153326;27;20038;-90
2022/06/21 01:01:20;;;;;;;12.90;4.40;;;17.30;85.90;;;;;;5156039;27;20352;-90
2022/06/21 01:04:16;;;;;;;7.70;3.70;;;17.30;86.20;;;;;;5141306;27;20099;-91
2022/06/21 01:06:46;;;;;;;8.43;4.10;;;17.30;86.10;;;;;;5135369;27;20019;-91
2022/06/21 01:09:16;;;;;;;7.32;3.88;;;17.30;86.40;;;;;;5140196;27;20031;-89
2022/06/21 01:11:47;;;;;;;8.85;4.35;;;17.30;86.30;;;;;;5155425;27;20031;-89
2022/06/21 01:14:17;;;;;;;9.60;4.50;;;17.30;85.90;;;;;;5165998;27;20023;-90
2022/06/21 01:16:43;;;;;;;7.70;4.25;;;17.40;85.80;;;;;;5141971;27;20437;-90
2022/06/21 01:19:22;;;;;;;11.70;4.80;;;17.40;85.80;;;;;;5134931;27;20015;-92
2022/06/21 01:21:54;;;;;;;10.40;4.43;;;17.30;85.90;;;;;;5142043;27;20117;-91
2022/06/21 01:24:32;;;;;;;7.38;4.22;;;17.30;86.10;;;;;;5140183;27;20079;-91
2022/06/21 01:27:01;;;;;;;6.93;4.20;;;17.40;86.10;;;;;;5138953;27;20011;-90
2022/06/21 01:29:30;;;;;;;6.95;4.55;;;17.40;86.40;;;;;;5159324;27;20030;-89
2022/06/21 01:32:00;;;;;;;7.45;4.10;;;17.40;86.50;;;;;;5160718;27;20039;-90
2022/06/21 01:34:27;;;;;;;10.07;4.63;;;17.40;86.20;;;;;;5142501;27;20023;-88
2022/06/21 01:37:06;;;;;;;10.20;4.50;;;17.40;86.20;;;;;;5135963;27;20042;-93
2022/06/21 01:40:10;;;;;;;11.18;4.57;;;17.40;86.20;;;;;;5108749;28;20029;-83
2022/06/21 01:42:44;;;;;;;8.23;3.83;;;17.40;85.30;;;;;;5069761;28;20030;-88
2022/06/21 01:45:22;;;;;;;15.20;4.78;;;17.30;84.70;;;;;;5077338;28;20045;-93
2022/06/21 01:48:10;;;;;;;10.70;4.18;;;17.40;84.10;;;;;;5046548;28;20060;-91
2022/06/21 01:50:37;;;;;;;6.47;4.28;;;17.40;82.60;;;;;;5048019;28;20530;-94
2022/06/21 01:53:05;;;;;;;13.68;4.53;;;17.40;82.10;;;;;;5064631;28;20045;-91
2022/06/21 01:55:40;;;;;;;11.45;4.35;;;17.40;82.00;;;;;;5060992;28;20522;-91
2022/06/21 01:58:11;;;;;;;11.18;4.78;;;17.40;81.50;;;;;;5042236;28;20040;-91
2022/06/21 02:00:42;;;;;;;9.45;4.47;;;17.40;81.50;;;;;;5041098;28;20103;-91
2022/06/21 02:03:15;;;;;;;9.65;4.57;;;17.40;81.50;;;;;;5024431;28;20599;-93
2022/06/21 02:05:49;;;;;;;11.80;4.57;;;17.30;82.00;;;;;;5052781;28;20441;-92
2022/06/21 02:08:19;;;;;;;11.07;4.90;;;17.30;82.40;;;;;;5039910;28;20490;-91
2022/06/21 02:10:51;;;;;;;8.23;4.45;;;17.30;81.90;;;;;;5043286;28;20057;-92
2022/06/21 02:13:29;;;;;;;11.70;4.80;;;17.40;82.20;;;;;;5062932;28;20052;-91
2022/06/21 02:16:32;;;;;;;10.32;4.30;;;17.40;81.00;;;;;;5036123;28;20024;-89
2022/06/21 02:18:58;;;;;;;7.68;4.60;;;17.50;80.90;;;;;;5071644;27;20028;-89
2022/06/21 02:21:32;;;;;;;8.18;4.32;;;17.50;81.20;;;;;;5138478;27;20156;-89
2022/06/21 02:23:59;;;;;;;11.52;5.00;;;17.40;81.30;;;;;;5122697;27;20030;-89
2022/06/21 02:26:29;;;;;;;9.73;4.90;;;17.40;82.20;;;;;;5145653;27;20030;-89
2022/06/21 02:28:55;;;;;;;10.52;4.63;;;17.40;82.20;;;;;;5111910;27;20051;-88
2022/06/21 02:31:24;;;;;;;7.68;4.65;;;17.30;83.20;;;;;;5142495;27;20046;-91
2022/06/21 02:33:52;;;;;;;10.95;4.97;;;17.10;83.60;;;;;;5140967;27;20019;-90
2022/06/21 02:36:20;;;;;;;;;;;17.00;85.00;;;;;;5144016;27;20023;-90
2022/06/21 02:38:54;;;;;;;13.20;5.20;;;16.90;84.60;;;;;;5138034;27;20305;-89
2022/06/21 02:41:39;;;;;;;12.48;5.20;;;16.80;85.80;;;;;;5138778;27;20022;-90
2022/06/21 02:44:17;;;;;;;11.77;5.10;;;16.70;85.30;;;;;;5133453;27;20022;-91
2022/06/21 02:46:48;;;;;;;11.93;5.57;;;16.70;86.70;;;;;;5115932;28;20531;-89
2022/06/21 02:49:27;;;;;;;10.15;5.35;;;16.60;87.50;;;;;;5117775;28;20035;-91
2022/06/21 02:52:06;;;;;;;7.78;5.13;;;16.50;88.80;;;;;;5105023;27;20030;-92
2022/06/21 02:55:14;;;;;;;14.98;5.72;;;16.40;88.90;;;;;;5118779;27;20099;-92
2022/06/21 02:57:45;;;;;;;10.23;6.07;;;16.40;90.20;;;;;;5124584;27;20024;-90
2022/06/21 03:00:18;;;;;;;12.18;5.38;;;16.30;91.00;;;;;;5118566;27;20019;-91
2022/06/21 03:02:44;;;;;;;10.07;5.78;;;16.30;91.00;;;;;;5119066;27;20027;-92
2022/06/21 03:05:28;;;;;;;6.32;4.57;;;16.30;91.40;;;;;;5124661;27;20073;-90
2022/06/21 03:08:02;;;;;;;10.43;5.53;;;16.30;90.80;;;;;;5140701;27;20026;-90
2022/06/21 03:10:41;;;;;;;12.55;5.63;;;16.30;91.80;;;;;;5144045;27;20047;-91
2022/06/21 03:13:22;;;;;;;15.55;6.20;;;16.20;92.50;;;;;;5147168;27;20095;-89
2022/06/21 03:15:57;;;;;;;9.25;5.93;;;16.20;92.60;;;;;;5117650;28;20031;-90
2022/06/21 03:18:32;;;;;;;10.48;5.70;;;16.20;92.70;;;;;;5117521;28;20063;-90
2022/06/21 03:21:01;;;;;;;16.65;8.40;;;16.20;92.80;;;;;;5099061;28;20031;-90
2022/06/21 03:23:28;;;;;;;11.50;6.47;;;16.20;93.10;;;;;;5123012;28;20485;-95
2022/06/21 03:26:05;;;;;;;12.65;5.78;;;16.20;93.40;;;;;;5119381;27;20488;-93
2022/06/21 03:28:37;;;;;;;11.45;5.50;;;16.20;93.50;;;;;;5130608;27;20049;-92
2022/06/21 03:31:21;;;;;;;10.23;5.20;;;16.20;94.10;;;;;;5141326;27;20031;-93
2022/06/21 03:33:52;;;;;;;8.93;5.45;;;16.20;94.10;;;;;;5137388;27;20007;-93
2022/06/21 03:36:25;;;;;;;14.85;5.60;;;16.10;94.50;;;;;;5154608;27;20034;-90
2022/06/21 03:39:04;;;;;;;10.35;5.32;;;16.00;94.30;;;;;;5147720;27;20031;-93
2022/06/21 03:41:43;;;;;;;10.13;4.70;;;16.00;93.70;;;;;;5158297;27;20028;-93
2022/06/21 03:44:45;;;;;;;10.90;5.07;;;;;;;;;;5115065;28;20039;-94
2022/06/21 03:47:56;;;;;;;8.60;5.40;;;;;;;;;;5047228;28;20032;-94
2022/06/21 03:50:53;;;;;;;5.78;4.65;;;;;;;;;;5077550;28;20025;-80
2022/06/21 03:53:24;;;;;;;6.65;4.38;;;;;;;;;;5044116;28;20032;-86
2022/06/21 03:56:20;;;;;;;8.88;4.75;;;;;;;;;;5073786;28;20037;-94
2022/06/21 03:59:12;;;;;;;7.32;4.85;;;;;;;;;;4996035;28;20090;-95
2022/06/21 04:01:49;;;;;;;7.97;5.13;;;;;;;;;;4971016;29;20055;-96
2022/06/21 04:04:16;;;;;;;11.25;5.68;;;;;;;;;;4976708;28;20043;-86
2022/06/21 04:07:03;;;;;;;11.02;5.13;;;;;;;;;;4974362;28;20066;-92
2022/06/21 04:10:09;;;;;;;12.23;5.50;;;;;;;;;;4975209;28;20075;-94
2022/06/21 04:12:39;;;;;;;8.75;5.85;;;;;;;;;;4974224;29;20128;-94
2022/06/21 04:15:51;;;;;;;8.60;6.15;;;;;;;;;;4987289;28;20037;-81
2022/06/21 04:18:31;;;;;;;10.52;6.70;;;;;;;;;;4982840;28;20023;-86
2022/06/21 04:21:09;;;;;;;15.07;6.88;;;;;;;;;;5010070;28;20057;-92
2022/06/21 04:23:52;;;;;;;13.45;7.35;;;;;;;;;;5027805;28;20034;-94
2022/06/21 04:26:22;;;;;;;12.05;6.63;;;;;;;;;;5028883;28;20082;-93
2022/06/21 04:28:55;;;;;;;15.48;7.40;;;15.80;92.30;;;;;;5027261;28;20054;-89
2022/06/21 04:31:53;;;;;;;16.25;6.78;;;16.30;92.30;;;;;;5022911;28;20041;-91
2022/06/21 04:34:24;;;;;;;10.00;6.25;;;16.30;91.60;;;;;;4998535;28;20057;-91
2022/06/21 04:36:57;;;;;;;20.38;9.02;;;16.20;91.70;;;;;;5077613;28;20106;-89
2022/06/21 04:39:41;;;;;;;11.70;6.05;;;16.20;91.60;;;;;;5137260;28;20035;-88
2022/06/21 04:42:13;;;;;;;14.82;6.00;;;16.30;91.50;;;;;;5143287;28;20037;-90
2022/06/21 04:45:03;;;;;;;10.50;5.03;;;16.40;91.20;;;;;;5116824;28;20011;-89
2022/06/21 04:47:56;;;;;;;8.63;5.07;;;16.60;91.00;;;;;;5119179;28;20032;-88
2022/06/21 04:50:29;;;;;;;8.73;4.63;;;16.80;91.40;;;;;;5070739;28;20497;-91
2022/06/21 04:52:57;;;;;;;6.93;4.30;;;17.00;90.50;;;;;;5128541;28;20034;-90
2022/06/21 04:55:42;;;;;;;10.25;4.43;;;17.20;89.00;;;;;;5127204;27;20007;-90
2022/06/21 04:58:10;;;;;;;8.82;4.72;;;17.40;88.20;;;;;;5139410;27;20084;-90
2022/06/21 05:00:37;;;;;;;9.82;4.70;;;17.50;86.30;;;;;;5154231;27;20060;-92
2022/06/21 05:03:20;;;;;;;10.15;4.70;;;17.60;86.60;;;;;;5145727;27;20079;-89
2022/06/21 05:05:47;;;;;;;8.63;5.38;;;17.80;86.80;;;;;;5124581;27;20031;-89
2022/06/21 05:08:21;;;;;;;8.45;5.55;;;18.00;85.90;;;;;;5125375;27;20080;-89
2022/06/21 05:10:50;;;;;;;10.93;6.10;;;18.10;86.00;;;;;;5143495;27;20096;-89
2022/06/21 05:13:24;;;;;;;10.13;5.82;;;18.30;86.50;;;;;;5146011;27;20071;-90
2022/06/21 05:15:52;;;;;;;11.50;6.30;;;18.40;85.50;;;;;;5126838;27;20504;-90
2022/06/21 05:18:21;;;;;;;;;;;18.50;85.80;;;;;;5134835;27;20103;-89
2022/06/21 05:20:53;;;;;;;14.48;7.38;;;18.60;86.00;;;;;;5134116;27;20265;-90
2022/06/21 05:23:22;;;;;;;12.77;7.45;;;18.80;85.70;;;;;;5094617;28;20035;-89
2022/06/21 05:25:49;;;;;;;11.88;6.95;;;19.10;85.00;;;;;;5084235;28;20135;-90
2022/06/21 05:28:36;;;;;;;10.02;7.00;;;19.20;82.70;;;;;;5095383;28;20032;-91
2022/06/21 05:31:23;;;;;;;8.60;6.40;;;19.40;82.40;;;;;;5098495;28;20037;-90
2022/06/21 05:33:51;;;;;;;;;;;19.50;82.30;;;;;;5090769;28;20027;-89
2022/06/21 05:36:35;;;;;;;11.35;6.65;;;19.50;82.40;;;;;;5080703;28;19912;-93
2022/06/21 05:39:09;;;;;;;11.68;7.20;;;19.50;80.50;;;;;;5086019;28;20031;-92
2022/06/21 05:41:43;;;;;;;11.88;7.53;;;19.30;80.80;;;;;;5080162;28;20401;-93
2022/06/21 05:44:13;;;;;;;11.15;7.45;;;19.30;82.10;;;;;;5091264;28;20024;-91
2022/06/21 05:46:47;;;;;;;11.13;7.18;;;19.40;81.10;;;;;;5081129;28;20026;-89
2022/06/21 05:49:21;;;;;;;8.07;6.10;;;19.40;79.70;;;;;;5098839;28;20027;-89
2022/06/21 05:51:49;;;;;;;13.80;7.30;;;19.40;80.80;;;;;;5098626;28;20419;-92
2022/06/21 05:54:18;;;;;;;14.05;7.72;;;19.50;81.40;;;;;;5100333;28;20143;-90
2022/06/21 05:56:49;;;;;;;17.40;8.50;;;19.70;81.00;;;;;;5087372;28;20031;-89
2022/06/21 05:59:17;;;;;;;13.70;8.82;;;19.90;80.40;;;;;;5066426;28;20039;-91
2022/06/21 06:01:54;;;;;;;13.68;8.23;;;20.20;80.30;;;;;;5151971;27;20042;-92
2022/06/21 06:04:50;;;;;;;14.93;8.63;;;20.50;78.50;;;;;;5135782;28;20070;-90
2022/06/21 06:07:21;;;;;;;;;;;20.50;77.50;;;;;;5105533;28;20043;-89
2022/06/21 06:09:49;;;;;;;11.13;6.50;;;20.30;77.60;;;;;;5099304;28;19919;-90
2022/06/21 06:12:27;;;;;;;11.90;7.22;;;20.30;77.20;;;;;;5111849;28;20069;-92
2022/06/21 06:15:20;;;;;;;10.70;6.50;;;20.50;76.50;;;;;;5112931;28;20036;-90
2022/06/21 06:17:57;;;;;;;12.93;6.10;;;20.70;75.50;;;;;;5111068;28;20034;-90
2022/06/21 06:20:35;;;;;;;14.52;6.18;;;20.80;75.30;;;;;;5114954;28;20039;-90
2022/06/21 06:23:24;;;;;;;13.93;6.82;;;20.50;74.90;;;;;;5101465;28;20024;-90
2022/06/21 06:26:01;;;;;;;15.75;7.75;;;20.40;76.40;;;;;;5104693;28;20092;-88
2022/06/21 06:28:45;;;;;;;12.60;8.27;;;20.30;76.30;;;;;;5092099;28;20024;-92
2022/06/21 06:31:36;;;;;;;11.70;8.40;;;19.80;77.20;;;;;;5106109;28;20103;-92
2022/06/21 06:34:16;;;;;;;13.98;8.82;;;19.30;79.00;;;;;;5107011;28;20031;-91
2022/06/21 06:37:25;;;;;;;14.00;9.10;;;19.10;80.30;;;;;;5116552;27;20027;-89
2022/06/21 06:39:53;;;;;;;12.90;9.13;;;18.90;80.90;;;;;;5107286;27;20031;-89
2022/06/21 06:42:22;;;;;;;11.50;8.57;;;18.90;82.30;;;;;;5144788;27;20031;-92
2022/06/21 06:44:57;;;;;;;10.57;8.25;;;19.00;81.80;;;;;;5130219;27;20027;-93
2022/06/21 06:47:31;;;;;;;11.20;7.82;;;18.80;81.60;;;;;;5121820;28;20450;-92
2022/06/21 06:50:43;;;;;;;12.70;7.88;;;18.50;82.60;;;;;;5130251;27;20500;-92
2022/06/21 06:53:15;;;;;;;15.40;9.10;;;18.40;83.70;;;;;;5143286;27;20035;-89
2022/06/21 06:55:46;;;;;;;11.70;8.10;;;18.60;84.70;;;;;;5133661;27;20031;-91
2022/06/21 06:58:41;;;;;;;14.23;8.93;;;18.70;84.10;;;;;;5153748;27;20094;-90
2022/06/21 07:01:49;;;;;;;13.07;8.90;;;18.80;84.10;;;;;;5132458;28;20028;-91
2022/06/21 07:04:21;;;;;;;13.63;8.98;;;18.80;84.10;;;;;;5074312;28;20089;-89
2022/06/21 07:06:49;;;;;;;13.63;9.45;;;18.80;83.90;;;;;;5069833;28;20104;-88
2022/06/21 07:09:27;;;;;;;19.00;9.43;;;18.80;84.10;;;;;;5066708;28;20087;-89
2022/06/21 07:11:53;;;;;;;14.75;9.00;;;18.90;84.70;;;;;;5059325;28;20123;-89
2022/06/21 07:14:29;;;;;;;14.07;8.75;;;18.90;83.80;;;;;;5044776;28;20091;-88
2022/06/21 07:17:18;;;;;;;13.20;8.85;;;18.90;83.50;;;;;;5035026;28;20041;-89
2022/06/21 07:19:43;;;;;;;12.95;9.57;;;18.90;83.40;;;;;;5071831;28;20044;-89
2022/06/21 07:22:19;;;;;;;17.15;8.88;;;18.80;84.30;;;;;;5051515;28;20033;-88
2022/06/21 07:25:09;;;;;;;12.75;8.52;;;18.80;83.60;;;;;;5050717;28;20034;-87
2022/06/21 07:27:43;;;;;;;16.98;9.25;;;18.70;84.40;;;;;;5062824;28;20044;-89
2022/06/21 07:30:12;;;;;;;13.98;9.25;;;18.70;84.60;;;;;;5059970;28;20085;-87
2022/06/21 07:32:49;;;;;;;20.20;8.65;;;18.60;84.00;;;;;;5062904;28;20029;-89
2022/06/21 07:35:27;;;;;;;;;;;18.40;84.40;;;;;;5072023;28;20017;-87
2022/06/21 07:38:25;;;;;;;14.00;9.35;;;18.30;84.40;;;;;;5078410;27;19956;-89
2022/06/21 07:40:57;;;;;;;18.60;7.90;;;18.20;85.80;;;;;;5141490;27;20028;-89
2022/06/21 07:43:32;;;;;;;13.13;8.25;;;18.20;85.90;;;;;;5136964;27;20016;-87
2022/06/21 07:46:01;;;;;;;13.00;7.53;;;18.10;85.60;;;;;;5134916;27;20356;-88
2022/06/21 07:48:39;;;;;;;13.52;8.43;;;18.10;86.20;;;;;;5128661;27;20046;-88
2022/06/21 07:51:07;;;;;;;9.88;7.63;;;18.10;86.10;;;;;;5139527;27;20027;-88
2022/06/21 07:53:41;;;;;;;11.43;8.07;;;18.10;86.70;;;;;;5126176;27;20023;-87
2022/06/21 07:56:36;;;;;;;14.48;9.15;;;18.20;87.00;;;;;;5139948;27;20031;-89
2022/06/21 07:59:18;;;;;;;12.48;8.73;;;18.20;86.60;;;;;;5138893;27;20023;-91
2022/06/21 08:07:51;;;;;;;15.68;8.43;;;17.70;88.60;;;;;;5142233;27;20052;-90
2022/06/21 08:11:03;;;;;;;13.80;10.18;;;17.70;89.70;;;;;;5144089;28;20046;-88
2022/06/21 08:13:30;;;;;;;17.20;10.10;;;17.70;90.10;;;;;;5088585;28;20046;-87
2022/06/21 08:16:06;;;;;;;16.02;10.98;;;17.70;90.10;;;;;;5135460;28;20448;-88
2022/06/21 08:19:06;;;;;;;15.50;9.23;;;17.60;90.40;;;;;;5129825;28;20020;-87
2022/06/21 08:21:42;;;;;;;14.48;9.82;;;17.70;90.80;;;;;;5096321;28;20065;-90
2022/06/21 08:24:15;;;;;;;13.27;10.32;;;17.70;90.50;;;;;;5141245;28;20015;-89
2022/06/21 08:26:51;;;;;;;16.15;9.98;;;17.80;90.40;;;;;;5139006;28;20046;-87
2022/06/21 08:29:28;;;;;;;18.73;9.83;;;17.90;90.20;;;;;;5138173;28;20492;-89
2022/06/21 08:32:01;;;;;;;15.98;8.95;;;17.90;90.40;;;;;;5122308;27;20046;-92
2022/06/21 08:34:54;;;;;;;18.52;8.98;;;18.00;90.60;;;;;;5123871;27;20035;-89
2022/06/21 08:37:43;;;;;;;13.68;9.43;;;18.10;90.60;;;;;;5144060;27;20427;-89
2022/06/21 08:40:33;;;;;;;14.77;8.90;;;18.20;90.40;;;;;;5118798;27;20114;-90
2022/06/21 08:43:11;;;;;;;12.98;8.43;;;18.30;89.40;;;;;;5141843;27;20027;-91
2022/06/21 08:46:25;;;;;;;14.30;8.45;;;18.30;89.30;;;;;;5145245;27;20054;-90
2022/06/21 08:49:23;;;;;;;17.33;8.75;;;18.40;89.10;;;;;;5142851;27;20523;-88
2022/06/21 08:52:20;;;;;;;13.13;9.18;;;18.30;88.90;;;;;;5142679;27;20051;-87
2022/06/21 08:55:27;;;;;;;15.52;9.05;;;18.30;88.90;;;;;;5125579;27;20099;-89
2022/06/21 08:58:27;;;;;;;11.85;7.10;;;18.20;88.30;;;;;;5127762;27;20035;-90
2022/06/21 09:01:33;;;;;;;9.25;7.13;;;18.10;87.80;;;;;;5117918;27;20036;-88
2022/06/21 09:04:17;;;;;;;13.60;7.28;;;18.00;88.00;;;;;;5097391;28;20032;-89
2022/06/21 09:07:22;;;;;;;10.60;7.05;;;17.90;89.40;;;;;;5110260;27;20024;-88
2022/06/21 09:10:06;;;;;;;12.95;8.80;;;18.00;89.30;;;;;;5061127;28;20120;-87
2022/06/21 09:13:16;;;;;;;14.95;8.07;;;18.00;89.50;;;;;;5040831;28;20041;-89
2022/06/21 09:16:08;;;;;;;16.85;9.63;;;18.00;89.40;;;;;;5030196;28;20037;-88
2022/06/21 09:19:08;;;;;;;13.88;8.23;;;18.10;89.40;;;;;;5039162;28;20026;-88
2022/06/21 09:21:52;;;;;;;10.02;7.50;;;18.10;90.00;;;;;;5024878;28;20033;-88
2022/06/21 09:24:41;;;;;;;13.73;7.93;;;18.10;89.20;;;;;;5043750;28;20535;-89
2022/06/21 09:27:16;;;;;;;11.52;8.95;;;18.00;88.50;;;;;;5032894;28;20042;-87
2022/06/21 09:30:07;;;;;;;14.10;8.55;;;18.00;88.70;;;;;;5044932;28;20496;-87
2022/06/21 09:32:42;;;;;;;12.23;9.02;;;18.00;88.40;;;;;;5010526;28;20064;-88
2022/06/21 09:35:45;;;;;;;18.58;10.50;;;18.10;89.00;;;;;;5011965;28;20038;-88
2022/06/21 09:38:45;;;;;;;20.23;12.95;;;18.10;88.60;;;;;;5044705;28;20060;-89
2022/06/21 09:41:22;;;;;;;16.52;10.65;;;18.10;88.20;;;;;;5046686;28;20069;-88
2022/06/21 09:44:00;;;;;;;13.63;10.60;;;18.00;87.60;;;;;;5042519;28;20035;-88
2022/06/21 09:46:41;;;;;;;14.43;11.40;;;18.00;88.10;;;;;;5059748;28;20043;-90
2022/06/21 09:49:40;;;;;;;15.40;11.43;;;17.90;88.70;;;;;;5110326;28;20039;-88
2022/06/21 09:52:12;;;;;;;16.15;11.27;;;17.80;89.10;;;;;;5103181;28;20044;-89
2022/06/21 09:54:41;;;;;;;21.65;12.40;;;17.70;90.00;;;;;;5113440;28;20016;-90
2022/06/21 09:57:31;;;;;;;13.05;11.70;;;17.60;90.20;;;;;;5110643;28;20024;-91
2022/06/21 10:00:03;;;;;;;17.85;13.10;;;17.60;90.80;;;;;;5090524;28;20097;-87
2022/06/21 10:02:46;;;;;;;12.30;11.10;;;17.50;92.30;;;;;;5083148;28;20024;-87
2022/06/21 10:05:31;;;;;;;14.45;11.82;;;17.30;92.10;;;;;;5093064;28;20025;-89
2022/06/21 10:08:00;;;;;;;14.68;13.23;;;17.30;93.20;;;;;;5079349;28;20020;-90
2022/06/21 10:10:34;;;;;;;16.65;14.85;;;17.30;93.50;;;;;;5100440;28;20047;-89
2022/06/21 10:13:21;;;;;;;19.52;15.07;;;17.40;93.70;;;;;;5121970;27;20476;-91
2022/06/21 10:16:05;;;;;;;;;;;17.60;94.30;;;;;;5140887;27;20480;-88
2022/06/21 10:18:34;;;;;;;15.32;13.02;;;17.70;93.70;;;;;;5140079;27;19993;-89
2022/06/21 10:21:27;;;;;;;20.00;14.25;;;17.80;93.00;;;;;;5138187;27;20030;-90
2022/06/21 10:24:19;;;;;;;19.80;13.75;;;17.70;92.10;;;;;;5144248;27;20029;-89
2022/06/21 10:27:06;;;;;;;17.88;12.80;;;17.80;92.20;;;;;;5147278;27;20027;-91
2022/06/21 10:29:42;;;;;;;;;;;17.80;92.20;;;;;;5157808;27;20046;-90
2022/06/21 10:32:32;;;;;;;17.73;13.02;;;17.90;91.90;;;;;;5127948;27;19915;-91
2022/06/21 10:35:30;;;;;;;16.75;13.20;;;17.90;91.80;;;;;;5129619;27;20506;-91
2022/06/21 10:38:20;;;;;;;14.07;12.23;;;18.00;91.70;;;;;;5123797;27;20023;-89
2022/06/21 10:41:20;;;;;;;20.10;16.60;;;18.10;91.30;;;;;;5136101;27;20031;-89
2022/06/21 10:44:12;;;;;;;16.35;12.25;;;18.20;92.10;;;;;;5130762;27;20027;-88
2022/06/21 10:46:48;;;;;;;19.98;14.27;;;18.20;91.20;;;;;;5115378;28;20084;-90
2022/06/21 10:49:44;;;;;;;20.43;16.47;;;18.20;91.70;;;;;;5123154;27;20057;-89
2022/06/21 10:52:40;;;;;;;15.70;10.85;;;18.30;92.00;;;;;;5129857;27;20033;-89
2022/06/21 10:55:05;;;;;;;19.35;12.77;;;18.40;91.40;;;;;;5138010;27;20019;-89
2022/06/21 10:58:09;;;;;;;18.95;12.80;;;18.40;91.00;;;;;;5121196;27;20056;-89
2022/06/21 11:01:21;;;;;;;18.27;12.73;;;18.50;90.90;;;;;;5095722;28;20032;-89
2022/06/21 11:04:25;;;;;;;17.52;11.13;;;18.60;90.10;;;;;;5119383;28;20495;-90
2022/06/21 11:07:13;;;;;;;18.95;12.60;;;18.60;89.50;;;;;;5120107;28;20016;-89
2022/06/21 11:09:48;;;;;;;19.02;13.13;;;18.70;89.40;;;;;;5132171;27;20042;-90
2022/06/21 11:12:56;;;;;;;19.15;13.35;;;18.80;90.10;;;;;;5123311;27;20047;-89
2022/06/21 11:15:32;;;;;;;20.23;15.32;;;18.90;89.70;;;;;;5133692;27;20097;-88
2022/06/21 11:18:14;;;;;;;19.42;15.35;;;18.90;88.50;;;;;;5121508;28;20087;-89
2022/06/21 11:21:06;;;;;;;21.67;15.30;;;18.80;88.70;;;;;;5134873;27;20379;-90
2022/06/21 11:24:07;;;;;;;20.88;13.93;;;18.80;89.00;;;;;;5140948;27;20115;-90
2022/06/21 11:26:49;;;;;;;17.95;11.07;;;18.80;90.20;;;;;;5118415;28;20069;-88
2022/06/21 11:29:38;;;;;;;14.05;10.95;;;18.70;87.90;;;;;;5121155;27;20041;-90
2022/06/21 11:32:41;;;;;;;18.30;12.32;;;18.80;86.90;;;;;;5136095;27;20037;-91
2022/06/21 11:35:19;;;;;;;16.75;11.93;;;18.90;88.20;;;;;;5127309;27;20027;-89
2022/06/21 11:38:02;;;;;;;16.85;11.15;;;18.90;88.30;;;;;;5140376;27;20051;-88
2022/06/21 11:41:00;;;;;;;17.08;10.60;;;19.00;86.00;;;;;;5155522;27;20023;-89
2022/06/21 11:43:42;;;;;;;15.77;10.68;;;18.90;85.90;;;;;;5136792;27;20022;-90
2022/06/21 11:46:30;;;;;;;18.15;10.02;;;19.00;86.60;;;;;;5122123;27;20023;-89
2022/06/21 11:49:33;;;;;;;12.77;9.13;;;19.10;85.60;;;;;;5111764;27;20027;-92
2022/06/21 11:52:08;;;;;;;15.68;8.73;;;19.20;84.70;;;;;;5126379;27;20069;-90
2022/06/21 11:55:04;;;;;;;11.55;8.13;;;19.30;84.10;;;;;;5136115;27;20053;-89
2022/06/21 11:57:35;;;;;;;15.85;9.13;;;19.30;84.60;;;;;;5118470;27;20488;-89
2022/06/21 12:00:15;;;;;;;13.80;8.85;;;19.40;84.50;;;;;;5137568;27;20051;-89
2022/06/21 12:03:02;;;;;;;13.75;8.55;;;19.50;84.40;;;;;;5139211;27;20011;-90
2022/06/21 12:05:36;;;;;;;;;;;19.60;86.00;;;;;;5137366;27;20079;-87
2022/06/21 12:08:34;;;;;;;14.95;9.45;;;19.60;85.00;;;;;;5143601;27;19907;-90
2022/06/21 12:11:15;;;;;;;24.00;11.02;;;19.40;81.20;;;;;;5118011;28;20115;-89
2022/06/21 12:14:20;;;;;;;19.10;9.63;;;19.40;80.30;;;;;;5118649;28;20495;-90
2022/06/21 12:17:04;;;;;;;15.48;8.85;;;19.40;80.40;;;;;;5116792;28;20134;-90
2022/06/21 12:19:38;;;;;;;17.63;10.52;;;19.50;81.40;;;;;;5136089;28;20023;-88
2022/06/21 12:22:41;;;;;;;17.33;10.00;;;19.60;81.70;;;;;;5127949;28;20020;-89
2022/06/21 12:25:17;;;;;;;15.02;8.85;;;19.60;81.40;;;;;;5129297;28;20034;-90
2022/06/21 12:27:44;;;;;;;17.75;8.77;;;19.50;79.60;;;;;;5121905;28;20076;-88
2022/06/21 12:30:25;;;;;;;16.37;8.93;;;19.40;79.10;;;;;;5135211;28;20063;-88
2022/06/21 12:32:59;;;;;;;15.73;11.07;;;19.30;79.40;;;;;;5139070;28;20029;-89
2022/06/21 12:35:40;;;;;;;18.27;11.13;;;19.30;79.40;;;;;;5138206;28;20472;-89
2022/06/21 12:38:13;;;;;;;17.88;9.82;;;19.50;80.60;;;;;;5132194;28;20095;-89
2022/06/21 12:40:52;;;;;;;13.93;8.38;;;19.50;78.30;;;;;;5157701;28;20039;-88
2022/06/21 12:43:42;;;;;;;17.45;9.18;;;19.60;79.10;;;;;;5153977;28;20019;-85
2022/06/21 12:46:27;;;;;;;12.95;7.55;;;19.70;79.10;;;;;;5121843;28;20035;-88
2022/06/21 12:49:18;;;;;;;14.70;6.47;;;19.60;75.70;;;;;;5137710;28;20027;-88
2022/06/21 12:51:56;;;;;;;13.38;7.32;;;19.50;74.90;;;;;;5120703;28;20027;-88
2022/06/21 12:54:44;;;;;;;14.63;8.48;;;19.40;77.20;;;;;;5146958;28;20422;-89
2022/06/21 12:57:25;;;;;;;17.05;7.50;;;19.50;77.30;;;;;;5134761;28;20045;-88
2022/06/21 13:00:10;;;;;;;11.15;7.28;;;19.60;76.30;;;;;;5134963;28;20095;-89
2022/06/21 13:03:00;;;;;;;14.48;8.70;;;19.60;75.20;;;;;;5135227;28;20027;-88
2022/06/21 13:06:02;;;;;;;13.40;7.85;;;19.70;75.60;;;;;;5135419;28;20015;-87
2022/06/21 13:08:56;;;;;;;17.52;8.35;;;19.90;76.60;;;;;;5134647;28;20015;-87
2022/06/21 13:11:50;;;;;;;11.80;7.05;;;20.10;74.70;;;;;;5119860;28;20051;-88
2022/06/21 13:14:39;;;;;;;16.15;7.72;;;20.20;74.70;;;;;;5127636;28;20087;-87
2022/06/21 13:17:14;;;;;;;12.82;7.50;;;20.30;74.50;;;;;;5141439;27;20015;-90
2022/06/21 13:20:01;;;;;;;14.07;6.70;;;20.40;72.50;;;;;;5125720;27;20050;-88
2022/06/21 13:22:29;;;;;;;;;;;20.40;72.00;;;;;;5120966;27;20023;-88
2022/06/21 13:25:31;;;;;;;13.85;8.65;;;20.50;73.10;;;;;;5139442;27;19903;-87
2022/06/21 13:28:12;;;;;;;13.57;7.95;;;20.40;72.00;;;;;;5138480;27;20037;-89
2022/06/21 13:30:52;;;;;;;9.70;7.07;;;20.20;72.80;;;;;;5129016;27;20426;-90
2022/06/21 13:33:59;;;;;;;13.38;7.00;;;20.20;73.20;;;;;;5138152;27;20019;-87
2022/06/21 13:36:39;;;;;;;16.98;8.23;;;20.20;73.10;;;;;;5118741;28;20034;-88
2022/06/21 13:39:34;;;;;;;15.20;7.15;;;20.20;73.90;;;;;;5131483;27;20472;-88
2022/06/21 13:45:25;;;;;;;14.35;6.20;;;20.00;74.30;;;;;;5141270;27;20472;-89
2022/06/21 13:48:24;;;;;;;14.77;7.35;;;20.00;73.90;;;;;;5102443;27;20032;-90
2022/06/21 13:51:14;;;;;;;20.02;6.80;;;19.90;74.20;;;;;;5111205;27;20042;-89
2022/06/21 13:53:55;;;;;;;14.93;6.82;;;19.70;72.70;;;;;;5125764;27;20022;-89
2022/06/21 13:56:30;;;;;;;6.90;5.55;;;19.60;71.70;;;;;;5103936;28;20032;-90
2022/06/21 13:59:06;;;;;;;8.32;5.70;;;19.50;71.90;;;;;;5124216;27;20427;-88
2022/06/21 14:01:44;;;;;;;10.13;5.40;;;19.50;71.70;;;;;;5120823;27;20038;-87
2022/06/21 14:04:13;;;;;;;17.77;6.55;;;19.40;71.40;;;;;;5138570;27;20027;-87